Time;durP1;ratioP1;P1;durP2;ratioP2;P2;SDS_P1;SDS_P2;PMS_P1;PMS_P2;Temp;Humidity;BMP_temperature;BMP_pressure;BME280_temperature;BME280_humidity;BME280_pressure;Samples;Min_cycle;Max_cycle;Signal;HPM_P1;HPM_P2
2024/01/04 00:00:13;;;;;;;0.70;0.70;;;;;;;-5.57;60.76;98912.00;5105324;28;20099;-67
2024/01/04 00:02:38;;;;;;;0.80;0.80;;;;;;;-5.61;60.67;98934.63;5106755;28;20391;-66
2024/01/04 00:05:04;;;;;;;0.70;0.70;;;;;;;-5.58;60.50;98910.25;5106367;28;20024;-67
2024/01/04 00:07:29;;;;;;;0.90;0.90;;;;;;;-5.48;59.91;98958.66;5106708;28;20020;-68
2024/01/04 00:09:54;;;;;;;0.90;0.90;;;;;;;-5.31;59.47;98965.97;5106527;28;20027;-69
2024/01/04 00:12:20;;;;;;;1.00;0.90;;;;;;;-5.39;59.50;98937.00;5106727;28;20016;-67
2024/01/04 00:14:45;;;;;;;0.77;0.77;;;;;;;-5.37;59.65;98955.63;5105105;28;20038;-66
2024/01/04 00:17:10;;;;;;;0.70;0.70;;;;;;;-5.41;59.48;98933.56;5105183;28;20105;-69
2024/01/04 00:19:35;;;;;;;0.75;0.75;;;;;;;-5.48;59.91;98942.66;5106368;28;20047;-67
2024/01/04 00:22:01;;;;;;;10.93;0.90;;;;;;;-5.39;59.63;98944.59;5106263;28;20104;-67
2024/01/04 00:24:26;;;;;;;0.70;0.70;;;;;;;-5.37;59.67;98932.88;5105928;28;20028;-67
2024/01/04 00:26:51;;;;;;;0.70;0.70;;;;;;;-5.33;59.40;98951.56;5106048;28;20082;-67
2024/01/04 00:29:17;;;;;;;0.70;0.70;;;;;;;-5.58;60.10;98954.13;5106354;28;20028;-67
2024/01/04 00:31:42;;;;;;;0.70;0.70;;;;;;;-5.34;59.19;98948.16;5106215;28;20034;-68
2024/01/04 00:34:08;;;;;;;0.70;0.70;;;;;;;-5.37;59.38;98946.34;5106037;28;20032;-66
2024/01/04 00:36:34;;;;;;;0.77;0.77;;;;;;;-5.17;59.00;98971.44;5104819;28;20024;-69
2024/01/04 00:38:59;;;;;;;0.80;0.80;;;;;;;-5.33;59.34;98962.50;5104581;28;20094;-67
2024/01/04 00:41:25;;;;;;;1.45;1.10;;;;;;;-5.44;59.53;98954.56;5105895;28;20031;-67
2024/01/04 00:43:50;;;;;;;20.13;1.77;;;;;;;-5.26;59.24;98956.84;5106072;28;20077;-68
2024/01/04 00:46:15;;;;;;;1.10;1.08;;;;;;;-5.39;59.64;98937.00;5104658;28;20420;-67
2024/01/04 00:48:41;;;;;;;2.80;2.35;;;;;;;-5.40;59.60;98950.47;5105736;28;20047;-67
2024/01/04 00:51:06;;;;;;;1.13;1.02;;;;;;;-5.51;60.31;98943.38;5104556;28;20028;-68
2024/01/04 00:53:32;;;;;;;0.70;0.70;;;;;;;-5.39;60.23;98953.06;5104170;28;20028;-68
2024/01/04 00:55:57;;;;;;;0.60;0.60;;;;;;;-5.20;59.76;98932.53;5105489;28;20039;-67
2024/01/04 00:58:23;;;;;;;0.70;0.70;;;;;;;-5.47;59.92;98960.41;5105339;28;20024;-66
2024/01/04 01:00:48;;;;;;;0.82;0.82;;;;;;;-5.32;59.86;98960.84;5105679;28;20031;-68
2024/01/04 01:03:13;;;;;;;1.55;1.45;;;;;;;-5.08;58.88;98953.19;5105487;28;20024;-67
2024/01/04 01:05:39;;;;;;;0.65;0.65;;;;;;;-5.22;59.25;98995.75;5105350;28;20089;-68
2024/01/04 01:08:05;;;;;;;0.63;0.63;;;;;;;-5.28;59.50;98988.81;5105182;28;20456;-67
2024/01/04 01:10:32;;;;;;;1.15;1.13;;;;;;;-5.14;58.82;98996.84;5104211;28;20045;-67
2024/01/04 01:12:57;;;;;;;1.15;1.15;;;;;;;-5.26;59.37;98940.81;5103999;28;20044;-67
2024/01/04 01:15:22;;;;;;;0.60;0.60;;;;;;;-5.18;59.25;98981.53;5105123;28;20055;-66
2024/01/04 01:17:48;;;;;;;0.90;0.90;;;;;;;-5.32;59.70;98970.97;5105013;28;20020;-67
2024/01/04 01:20:13;;;;;;;0.80;0.80;;;;;;;-5.20;59.59;98991.59;5104003;28;20024;-67
2024/01/04 01:22:38;;;;;;;0.80;0.80;;;;;;;-5.19;59.28;98974.75;5105146;28;20027;-67
2024/01/04 01:25:04;;;;;;;0.93;0.90;;;;;;;-5.29;59.60;98982.06;5104933;28;20460;-67
2024/01/04 01:27:29;;;;;;;1.00;1.00;;;;;;;-5.33;59.68;98972.63;5105013;28;20051;-67
2024/01/04 01:29:55;;;;;;;0.63;0.63;;;;;;;-5.16;59.44;98985.81;5105118;28;20456;-68
2024/01/04 01:32:20;;;;;;;1.05;1.00;;;;;;;-5.23;59.68;98982.25;5105249;28;20024;-67
2024/01/04 01:34:45;;;;;;;0.80;0.80;;;;;;;-5.44;59.90;98966.34;5103660;28;20020;-69
2024/01/04 01:37:11;;;;;;;0.70;0.70;;;;;;;-5.37;59.86;98989.38;5105303;28;20080;-67
2024/01/04 01:39:36;;;;;;;0.70;0.70;;;;;;;-5.10;59.06;99011.31;5104946;28;20020;-67
2024/01/04 01:42:02;;;;;;;0.70;0.70;;;;;;;-5.23;59.31;99045.50;5105237;28;20028;-67
2024/01/04 01:44:27;;;;;;;0.70;0.70;;;;;;;-5.22;59.32;98971.31;5104989;28;20045;-68
2024/01/04 01:46:53;;;;;;;0.88;0.88;;;;;;;-5.10;59.16;98995.28;5105067;28;20024;-68
2024/01/04 01:49:18;;;;;;;0.82;0.82;;;;;;;-5.17;58.71;98976.50;5104996;28;20024;-68
2024/01/04 01:51:44;;;;;;;0.70;0.70;;;;;;;-5.11;58.98;98998.63;5103788;28;20020;-69
2024/01/04 01:54:10;;;;;;;1.45;0.80;;;;;;;-5.25;59.55;99048.78;5104836;28;20020;-67
2024/01/04 01:56:35;;;;;;;0.70;0.70;;;;;;;-5.12;58.88;98985.13;5105094;28;20020;-67
2024/01/04 01:59:01;;;;;;;0.98;0.98;;;;;;;-5.26;59.29;99004.06;5105057;28;20027;-67
2024/01/04 02:01:27;;;;;;;0.90;0.90;;;;;;;-5.22;59.56;98988.16;5104827;28;20079;-68
2024/01/04 02:03:54;;;;;;;0.80;0.80;;;;;;;-5.32;59.71;99013.97;5104809;28;20106;-67
2024/01/04 02:06:20;;;;;;;0.70;0.70;;;;;;;-5.35;59.90;99037.47;5104793;28;20039;-67
2024/01/04 02:08:48;;;;;;;0.85;0.82;;;;;;;-5.26;59.72;99020.09;5104438;28;20012;-66
2024/01/04 02:11:14;;;;;;;0.70;0.70;;;;;;;-5.28;59.72;99047.03;5106674;28;20027;-66
2024/01/04 02:13:40;;;;;;;0.60;0.60;;;;;;;-5.27;60.00;99025.13;5108709;28;20020;-67
2024/01/04 02:16:05;;;;;;;0.93;0.80;;;;;;;-5.23;59.60;99053.09;5108767;28;20119;-67
2024/01/04 02:18:31;;;;;;;0.60;0.60;;;;;;;-5.16;59.01;99038.97;5107347;28;20020;-67
2024/01/04 02:20:56;;;;;;;0.70;0.70;;;;;;;-5.20;58.88;99049.81;5108465;28;20032;-66
2024/01/04 02:23:21;;;;;;;1.05;0.80;;;;;;;-5.25;59.57;99059.78;5108216;28;20031;-67
2024/01/04 02:25:47;;;;;;;0.80;0.80;;;;;;;-5.19;59.41;99055.72;5108786;28;20012;-67
2024/01/04 02:28:12;;;;;;;0.65;0.65;;;;;;;-5.25;59.58;99048.78;5108476;28;20501;-67
2024/01/04 02:30:37;;;;;;;1.35;1.25;;;;;;;-5.12;58.99;99093.94;5107026;28;20017;-69
2024/01/04 02:33:03;;;;;;;0.70;0.70;;;;;;;-5.16;58.75;99066.78;5108575;28;20016;-67
2024/01/04 02:35:28;;;;;;;1.75;1.35;;;;;;;-5.32;59.13;99070.50;5108289;28;20463;-68
2024/01/04 02:37:53;;;;;;;4.07;1.23;;;;;;;-5.10;58.45;99063.63;5108373;28;20043;-68
2024/01/04 02:40:21;;;;;;;0.70;0.70;;;;;;;-5.30;58.97;99066.34;5108328;28;20027;-67
2024/01/04 02:42:46;;;;;;;0.70;0.70;;;;;;;-5.34;59.73;99082.25;5106574;28;20118;-68
2024/01/04 02:45:13;;;;;;;0.70;0.70;;;;;;;-5.55;60.47;99062.97;5106360;28;20020;-67
2024/01/04 02:47:38;;;;;;;0.70;0.70;;;;;;;-5.52;61.03;99072.31;5106804;28;20024;-67
2024/01/04 02:50:04;;;;;;;0.70;0.70;;;;;;;-5.60;61.28;99064.47;5108273;28;20026;-67
2024/01/04 02:52:29;;;;;;;0.70;0.70;;;;;;;-5.65;61.99;99081.16;5108220;28;20113;-67
2024/01/04 02:54:55;;;;;;;0.80;0.80;;;;;;;-5.74;62.55;99072.44;5107728;28;20032;-67
2024/01/04 02:57:20;;;;;;;0.80;0.80;;;;;;;-5.78;62.78;99079.88;5108015;28;20050;-68
2024/01/04 02:59:45;;;;;;;0.70;0.70;;;;;;;-5.79;62.95;99081.53;5108294;28;20028;-66
2024/01/04 03:02:11;;;;;;;0.80;0.80;;;;;;;-5.82;63.47;99095.72;5107930;28;20598;-66
2024/01/04 03:04:40;;;;;;;0.80;0.80;;;;;;;-5.77;63.84;99102.69;5108040;28;20058;-67
2024/01/04 03:07:06;;;;;;;0.82;0.82;;;;;;;-5.95;64.38;99097.78;5106404;28;20028;-67
2024/01/04 03:09:32;;;;;;;0.77;0.77;;;;;;;-5.86;64.58;99102.31;5107399;28;20084;-68
2024/01/04 03:11:57;;;;;;;1.60;1.02;;;;;;;-5.94;65.04;99094.44;5107888;28;20024;-67
2024/01/04 03:14:22;;;;;;;0.70;0.70;;;;;;;-5.85;64.96;99097.31;5107567;28;20028;-66
2024/01/04 03:16:48;;;;;;;0.80;0.80;;;;;;;-5.95;65.31;99096.94;5107668;28;20380;-67
2024/01/04 03:19:13;;;;;;;0.90;0.90;;;;;;;-6.00;65.58;99112.78;5107714;28;20020;-66
2024/01/04 03:21:39;;;;;;;0.70;0.70;;;;;;;-5.79;65.49;99113.53;5105866;28;20471;-67
2024/01/04 03:24:04;;;;;;;0.70;0.70;;;;;;;-5.92;65.83;99137.47;5107368;28;20097;-67
2024/01/04 03:26:29;;;;;;;0.70;0.70;;;;;;;-5.98;65.80;99107.78;5107390;28;20032;-66
2024/01/04 03:28:54;;;;;;;3.05;1.60;;;;;;;-6.05;66.27;99101.66;5107440;28;20025;-67
2024/01/04 03:31:20;;;;;;;0.93;0.93;;;;;;;-6.05;66.41;99114.31;5106121;28;20039;-67
2024/01/04 03:33:45;;;;;;;0.73;0.73;;;;;;;-6.04;66.39;99116.03;5106102;28;20026;-67
2024/01/04 03:36:12;;;;;;;0.80;0.80;;;;;;;-5.98;66.34;99139.00;5105847;28;20597;-67
2024/01/04 03:38:37;;;;;;;0.90;0.90;;;;;;;-6.01;66.43;99125.38;5107225;28;20020;-67
2024/01/04 03:41:03;;;;;;;0.70;0.70;;;;;;;-6.01;66.58;99133.81;5107114;28;20038;-67
2024/01/04 03:43:28;;;;;;;0.73;0.73;;;;;;;-6.01;66.83;99140.53;5107054;28;20078;-67
2024/01/04 03:45:53;;;;;;;0.82;0.82;;;;;;;-6.02;66.93;99147.25;5107241;28;20077;-67
2024/01/04 03:48:19;;;;;;;0.70;0.70;;;;;;;-5.98;66.80;99149.09;5106912;28;20024;-66
2024/01/04 03:50:44;;;;;;;0.70;0.70;;;;;;;-6.02;66.71;99121.97;5106915;28;20019;-68
2024/01/04 03:53:09;;;;;;;0.80;0.80;;;;;;;-6.11;66.80;99131.78;5106903;28;20020;-68
2024/01/04 03:55:35;;;;;;;0.73;0.73;;;;;;;-6.09;66.93;99145.34;5106641;28;20051;-67
2024/01/04 03:58:00;;;;;;;0.70;0.70;;;;;;;-5.96;66.97;99156.75;5106899;28;20061;-67
2024/01/04 04:00:27;;;;;;;0.80;0.80;;;;;;;-6.04;67.18;99148.88;5106895;28;20027;-67
2024/01/04 04:02:53;;;;;;;0.90;0.90;;;;;;;-5.99;67.25;99160.00;5106721;28;20035;-65
2024/01/04 04:05:18;;;;;;;0.82;0.82;;;;;;;-6.04;67.34;99158.16;5106940;28;20028;-65
2024/01/04 04:07:44;;;;;;;0.60;0.60;;;;;;;-6.14;67.63;99151.88;5106556;28;20460;-68
2024/01/04 04:10:09;;;;;;;0.80;0.80;;;;;;;-6.12;67.67;99162.91;5105180;28;20024;-67
2024/01/04 04:12:34;;;;;;;0.68;0.68;;;;;;;-6.01;67.24;99158.22;5106793;28;20031;-66
2024/01/04 04:15:00;;;;;;;0.80;0.80;;;;;;;-6.10;67.68;99195.00;5106370;28;20028;-67
2024/01/04 04:17:25;;;;;;;0.70;0.70;;;;;;;-6.22;67.93;99172.66;5106564;28;20016;-66
2024/01/04 04:19:51;;;;;;;0.70;0.70;;;;;;;-6.17;68.02;99190.53;5106535;28;20073;-66
2024/01/04 04:22:16;;;;;;;0.70;0.70;;;;;;;-6.15;67.84;99191.41;5105101;28;20035;-66
2024/01/04 04:24:42;;;;;;;0.70;0.70;;;;;;;-6.17;67.86;99180.41;5106012;28;20020;-65
2024/01/04 04:27:07;;;;;;;0.77;0.77;;;;;;;-6.18;67.84;99198.03;5105930;28;20479;-67
2024/01/04 04:29:32;;;;;;;0.75;0.75;;;;;;;-6.06;67.48;99198.53;5106150;28;20040;-66
2024/01/04 04:31:58;;;;;;;0.70;0.70;;;;;;;-6.02;67.32;99192.72;5104425;28;20066;-66
2024/01/04 04:34:23;;;;;;;0.70;0.70;;;;;;;-5.87;66.38;99196.66;5105974;28;20463;-65
2024/01/04 04:36:49;;;;;;;0.68;0.68;;;;;;;-6.10;66.41;99200.06;5106057;28;20077;-67
2024/01/04 04:39:14;;;;;;;0.70;0.70;;;;;;;-6.16;66.80;99181.25;5105834;28;20016;-66
2024/01/04 04:41:40;;;;;;;1.10;1.10;;;;;;;-6.01;66.67;99194.47;5104795;28;20391;-68
2024/01/04 04:44:05;;;;;;;0.98;0.95;;;;;;;-6.09;66.45;99203.44;5106216;28;20039;-66
2024/01/04 04:46:30;;;;;;;0.80;0.80;;;;;;;-6.24;66.68;99186.88;5104664;28;20081;-66
2024/01/04 04:48:57;;;;;;;0.68;0.68;;;;;;;-6.07;66.46;99213.63;5105974;28;20034;-67
2024/01/04 04:51:23;;;;;;;0.70;0.70;;;;;;;-6.08;66.11;99196.72;5105907;28;20058;-66
2024/01/04 04:53:48;;;;;;;0.75;0.70;;;;;;;-6.14;66.14;99209.97;5105614;28;20076;-65
2024/01/04 04:56:14;;;;;;;0.60;0.60;;;;;;;-6.19;66.46;99186.19;5105475;28;20031;-66
2024/01/04 04:58:39;;;;;;;0.80;0.80;;;;;;;-6.14;66.02;99226.00;5104371;28;20026;-66
2024/01/04 05:01:04;;;;;;;0.80;0.80;;;;;;;-6.11;65.71;99230.31;5105726;28;20051;-66
2024/01/04 05:03:30;;;;;;;0.70;0.70;;;;;;;-6.06;65.27;99187.53;5105786;28;20054;-65
2024/01/04 05:05:55;;;;;;;0.70;0.70;;;;;;;-6.07;65.08;99211.94;5105475;28;20495;-66
2024/01/04 05:08:20;;;;;;;0.70;0.70;;;;;;;-6.06;65.01;99222.91;5105345;28;20031;-64
2024/01/04 05:10:46;;;;;;;0.70;0.70;;;;;;;-6.06;65.26;99223.78;5105648;28;20472;-66
2024/01/04 05:13:11;;;;;;;0.70;0.70;;;;;;;-6.08;64.87;99232.97;5104226;28;20088;-65
2024/01/04 05:15:37;;;;;;;1.00;1.00;;;;;;;-5.87;64.12;99237.09;5105429;28;20391;-66
2024/01/04 05:18:02;;;;;;;0.70;0.70;;;;;;;-6.07;64.63;99249.00;5105225;28;20321;-65
2024/01/04 05:20:28;;;;;;;0.77;0.77;;;;;;;-5.97;64.15;99229.16;5105544;28;20034;-66
2024/01/04 05:22:53;;;;;;;0.70;0.70;;;;;;;-6.02;64.03;99250.88;5105534;28;20020;-65
2024/01/04 05:25:18;;;;;;;1.33;0.80;;;;;;;-5.93;64.03;99262.16;5103813;28;20024;-66
2024/01/04 05:27:44;;;;;;;0.70;0.70;;;;;;;-5.94;63.77;99237.69;5105205;28;20047;-66
2024/01/04 05:30:10;;;;;;;0.65;0.65;;;;;;;-5.89;63.67;99252.22;5105332;28;20024;-66
2024/01/04 05:32:36;;;;;;;1.10;1.10;;;;;;;-5.87;63.21;99250.63;5105120;28;20024;-66
2024/01/04 05:35:02;;;;;;;0.75;0.75;;;;;;;-5.98;63.37;99245.16;5105410;28;20035;-66
2024/01/04 05:37:28;;;;;;;0.80;0.80;;;;;;;-6.02;63.70;99288.78;5105363;28;20114;-65
2024/01/04 05:39:53;;;;;;;0.70;0.70;;;;;;;-6.08;63.76;99263.28;5105145;28;20024;-65
2024/01/04 05:42:18;;;;;;;0.70;0.70;;;;;;;-6.16;64.29;99279.78;5105285;28;20063;-65
2024/01/04 05:44:44;;;;;;;1.13;1.02;;;;;;;-6.26;64.46;99287.00;5107887;28;20031;-65
2024/01/04 05:47:09;;;;;;;0.80;0.80;;;;;;;-6.36;64.73;99282.38;5109306;28;20032;-65
2024/01/04 05:49:34;;;;;;;0.70;0.70;;;;;;;-6.53;65.23;99286.72;5109458;28;20028;-65
2024/01/04 05:52:00;;;;;;;0.75;0.75;;;;;;;-6.62;65.57;99297.28;5107998;28;20107;-66
2024/01/04 05:54:25;;;;;;;0.70;0.70;;;;;;;-6.74;65.73;99290.06;5108965;28;20020;-66
2024/01/04 05:56:51;;;;;;;10.93;1.27;;;;;;;-6.85;66.13;99294.63;5107736;28;20024;-66
2024/01/04 05:59:16;;;;;;;0.70;0.70;;;;;;;-7.04;66.74;99280.31;5109164;28;20016;-64
2024/01/04 06:01:41;;;;;;;0.70;0.70;;;;;;;-6.91;66.86;99312.00;5109239;28;20024;-65
2024/01/04 06:04:07;;;;;;;1.23;1.23;;;;;;;-7.02;66.97;99312.41;5108985;28;20035;-64
2024/01/04 06:06:32;;;;;;;0.95;0.95;;;;;;;-7.08;67.25;99309.63;5108953;28;20023;-66
2024/01/04 06:08:57;;;;;;;0.70;0.70;;;;;;;-7.15;67.43;99318.56;5108839;28;20491;-66
2024/01/04 06:11:23;;;;;;;0.80;0.80;;;;;;;-7.21;67.98;99320.81;5108800;28;20020;-66
2024/01/04 06:13:48;;;;;;;0.80;0.80;;;;;;;-7.25;68.36;99331.56;5107509;28;20480;-67
2024/01/04 06:16:13;;;;;;;0.80;0.80;;;;;;;-7.43;68.64;99326.53;5108656;28;20035;-68
2024/01/04 06:18:39;;;;;;;0.65;0.65;;;;;;;-7.34;68.79;99344.59;5108528;28;20028;-67
2024/01/04 06:21:07;;;;;;;0.73;0.73;;;;;;;-7.37;68.85;99352.03;5107540;28;20062;-65
2024/01/04 06:23:32;;;;;;;0.80;0.80;;;;;;;-7.39;69.11;99339.34;5108435;28;20028;-66
2024/01/04 06:25:58;;;;;;;0.70;0.70;;;;;;;-7.40;69.17;99352.75;5108624;28;20041;-66
2024/01/04 06:28:24;;;;;;;0.70;0.70;;;;;;;-7.44;69.21;99358.44;5108469;28;20040;-66
2024/01/04 06:30:49;;;;;;;0.80;0.80;;;;;;;-7.50;69.40;99369.09;5108881;28;20024;-65
2024/01/04 06:33:16;;;;;;;0.70;0.70;;;;;;;-7.54;69.52;99379.81;5107241;28;20046;-66
2024/01/04 06:35:42;;;;;;;0.80;0.80;;;;;;;-7.49;69.65;99380.91;5108542;28;20020;-65
2024/01/04 06:38:08;;;;;;;0.90;0.90;;;;;;;-7.57;69.84;99376.31;5108538;28;20080;-66
2024/01/04 06:40:37;;;;;;;1.00;1.00;;;;;;;-7.52;69.90;99393.38;5108322;28;20028;-66
2024/01/04 06:43:03;;;;;;;0.70;0.70;;;;;;;-7.59;70.20;99397.25;5106812;28;20035;-65
2024/01/04 06:45:32;;;;;;;0.70;0.70;;;;;;;-7.57;70.34;99404.88;5106978;28;20028;-65
2024/01/04 06:47:57;;;;;;;1.98;1.05;;;;;;;-7.51;70.36;99396.75;5106623;28;20020;-66
2024/01/04 06:50:22;;;;;;;0.70;0.70;;;;;;;-7.64;70.30;99382.69;5110697;22;20043;-66
2024/01/04 06:52:48;;;;;;;1.15;1.13;;;;;;;-7.57;70.33;99399.84;5087091;28;20052;-67
2024/01/04 06:55:14;;;;;;;0.70;0.70;;;;;;;-7.60;70.54;99412.28;5086541;28;20080;-67
2024/01/04 06:57:40;;;;;;;1.00;1.00;;;;;;;-7.57;70.55;99424.19;5087953;28;20099;-66
2024/01/04 07:00:07;;;;;;;0.80;0.80;;;;;;;-7.66;70.61;99420.44;5087825;28;20047;-68
2024/01/04 07:02:36;;;;;;;0.70;0.70;;;;;;;-7.71;70.82;99416.81;5103341;28;20024;-67
2024/01/04 07:05:11;;;;;;;1.00;0.95;;;;;;;-7.64;70.76;99430.59;5087554;28;20020;-67
2024/01/04 07:07:38;;;;;;;0.70;0.70;;;;;;;-7.65;70.66;99423.84;5086079;28;20074;-67
2024/01/04 07:10:04;;;;;;;0.80;0.80;;;;;;;-7.75;70.63;99428.44;5087571;28;20400;-67
2024/01/04 07:12:29;;;;;;;0.90;0.90;;;;;;;-7.75;70.76;99430.94;5086334;28;20391;-67
2024/01/04 07:14:55;;;;;;;0.70;0.70;;;;;;;-7.84;70.59;99432.97;5102997;28;20029;-67
2024/01/04 07:17:22;;;;;;;0.70;0.70;;;;;;;-7.88;70.57;99446.22;5086250;28;20020;-67
2024/01/04 07:19:47;;;;;;;0.70;0.70;;;;;;;-7.90;70.61;99446.16;5087395;28;20044;-66
2024/01/04 07:22:15;;;;;;;0.80;0.80;;;;;;;-7.96;70.59;99456.81;5087433;28;20036;-66
2024/01/04 07:24:41;;;;;;;0.63;0.63;;;;;;;-8.01;70.68;99447.25;5086978;28;20025;-67
2024/01/04 07:27:08;;;;;;;0.80;0.80;;;;;;;-8.05;70.85;99451.25;5087317;28;20437;-66
2024/01/04 07:29:33;;;;;;;0.63;0.63;;;;;;;-8.03;70.86;99458.91;5087157;28;20044;-67
2024/01/04 07:31:59;;;;;;;0.70;0.70;;;;;;;-8.06;70.96;99451.19;5087188;28;20020;-67
2024/01/04 07:34:24;;;;;;;1.08;1.08;;;;;;;-8.04;71.16;99480.72;5087064;28;20032;-67
2024/01/04 07:36:50;;;;;;;0.60;0.60;;;;;;;-8.03;70.92;99471.50;5087112;28;20028;-67
2024/01/04 07:39:15;;;;;;;0.80;0.80;;;;;;;-8.10;70.91;99473.69;5104823;22;20056;-62
2024/01/04 07:41:42;;;;;;;0.70;0.70;;;;;;;-8.14;70.90;99479.38;5106095;28;20039;-62
2024/01/04 07:44:09;;;;;;;0.70;0.70;;;;;;;-8.19;70.98;99470.72;5104398;28;20385;-62
2024/01/04 07:46:34;;;;;;;1.15;1.13;;;;;;;-8.26;71.09;99482.09;5104393;28;20095;-63
2024/01/04 07:49:00;;;;;;;0.70;0.70;;;;;;;-8.27;70.85;99477.88;5106077;28;20012;-62
2024/01/04 07:51:25;;;;;;;0.80;0.80;;;;;;;-8.33;71.05;99492.66;5106070;28;20020;-62
2024/01/04 07:53:50;;;;;;;0.70;0.70;;;;;;;-8.31;70.92;99478.50;5105991;28;20043;-62
2024/01/04 07:56:16;;;;;;;1.73;1.63;;;;;;;-8.31;70.81;99493.63;5106208;28;20338;-62
2024/01/04 07:58:41;;;;;;;0.70;0.70;;;;;;;-8.41;70.87;99493.91;5106358;28;20028;-62
2024/01/04 08:01:09;;;;;;;0.70;0.70;;;;;;;-8.46;70.92;99497.03;5106271;28;20494;-61
2024/01/04 08:03:34;;;;;;;0.70;0.70;;;;;;;-8.40;70.78;99505.72;5106737;28;20020;-64
2024/01/04 08:06:00;;;;;;;0.80;0.80;;;;;;;-8.43;70.83;99508.91;5104592;28;20067;-63
2024/01/04 08:08:28;;;;;;;0.95;0.90;;;;;;;-8.50;70.94;99512.75;5104584;28;20020;-63
2024/01/04 08:10:54;;;;;;;0.80;0.80;;;;;;;-8.50;70.81;99532.03;5104463;28;20028;-65
2024/01/04 08:13:19;;;;;;;1.33;1.33;;;;;;;-8.56;70.92;99517.50;5105344;28;20023;-63
2024/01/04 08:15:45;;;;;;;0.80;0.80;;;;;;;-8.50;70.87;99540.44;5105865;28;20020;-63
2024/01/04 08:18:10;;;;;;;1.45;1.35;;;;;;;-8.53;71.06;99522.66;5105871;28;20093;-64
2024/01/04 08:20:36;;;;;;;1.02;1.00;;;;;;;-8.61;70.99;99531.50;5105513;28;20023;-63
2024/01/04 08:23:01;;;;;;;0.73;0.73;;;;;;;-8.48;71.18;99558.19;5104131;28;20020;-63
2024/01/04 08:25:27;;;;;;;0.70;0.70;;;;;;;-8.43;71.29;99548.34;5104211;28;20030;-63
2024/01/04 08:27:53;;;;;;;1.17;1.08;;;;;;;-8.34;70.78;99552.22;5104191;28;20092;-62
2024/01/04 08:30:19;;;;;;;0.70;0.70;;;;;;;-8.28;70.92;99543.25;5104146;28;20024;-63
2024/01/04 08:32:49;;;;;;;0.70;0.70;;;;;;;-8.18;70.85;99540.47;5104058;28;20031;-63
2024/01/04 08:35:17;;;;;;;0.82;0.82;;;;;;;-8.04;70.48;99558.81;5105184;28;20049;-63
2024/01/04 08:37:45;;;;;;;1.50;0.80;;;;;;;-7.93;70.47;99555.97;5105432;28;20020;-63
2024/01/04 08:40:11;;;;;;;2.08;1.98;;;;;;;-7.86;70.28;99536.22;5104583;28;20044;-62
2024/01/04 08:42:40;;;;;;;0.70;0.70;;;;;;;-7.80;70.08;99553.34;5104975;28;20093;-62
2024/01/04 08:45:06;;;;;;;0.70;0.70;;;;;;;-7.79;69.82;99569.31;5105308;28;20020;-62
2024/01/04 08:47:31;;;;;;;0.70;0.70;;;;;;;-7.76;69.50;99560.25;5103826;28;20016;-63
2024/01/04 08:50:00;;;;;;;0.60;0.60;;;;;;;-7.78;69.50;99566.84;5105157;28;20039;-62
2024/01/04 08:52:26;;;;;;;0.70;0.70;;;;;;;-7.84;69.45;99557.34;5105014;28;20039;-63
2024/01/04 08:54:52;;;;;;;1.25;0.95;;;;;;;-7.65;69.64;99585.16;5104847;28;20057;-62
2024/01/04 08:57:17;;;;;;;0.82;0.82;;;;;;;-7.58;69.34;99574.59;5103499;28;20019;-62
2024/01/04 08:59:43;;;;;;;0.70;0.70;;;;;;;-7.54;69.41;99563.88;5105073;28;20059;-63
2024/01/04 09:02:09;;;;;;;0.73;0.73;;;;;;;-7.43;69.22;99579.56;5104850;28;20024;-62
2024/01/04 09:04:34;;;;;;;0.80;0.80;;;;;;;-7.19;69.35;99590.81;5104567;28;20024;-63
2024/01/04 09:06:59;;;;;;;1.05;0.93;;;;;;;-7.06;69.38;99590.59;5103070;28;20043;-63
2024/01/04 09:09:25;;;;;;;0.77;0.77;;;;;;;-6.96;68.98;99576.78;5102807;28;20024;-63
2024/01/04 09:11:50;;;;;;;0.82;0.82;;;;;;;-6.94;68.68;99581.91;5104689;28;20039;-63
2024/01/04 09:14:15;;;;;;;0.80;0.80;;;;;;;-6.75;67.95;99571.94;5104797;28;20024;-63
2024/01/04 09:16:44;;;;;;;0.70;0.70;;;;;;;-6.50;67.51;99589.91;5104387;28;20020;-63
2024/01/04 09:19:17;;;;;;;0.70;0.70;;;;;;;-6.38;65.42;99599.72;5102695;28;20078;-63
2024/01/04 09:21:44;;;;;;;2.63;2.45;;;;;;;-6.41;66.03;99594.53;5103803;28;20024;-63
2024/01/04 09:24:12;;;;;;;0.95;0.95;;;;;;;-6.11;65.87;99599.25;5104432;28;20099;-62
2024/01/04 09:26:46;;;;;;;1.30;1.27;;;;;;;-6.08;64.31;99606.97;5102755;28;20024;-62
2024/01/04 09:29:14;;;;;;;0.70;0.70;;;;;;;-6.32;64.24;99610.09;5104476;28;20074;-61
2024/01/04 09:31:40;;;;;;;0.70;0.70;;;;;;;-6.26;64.36;99617.13;5104765;28;20024;-63
2024/01/04 09:34:06;;;;;;;0.80;0.80;;;;;;;-6.26;64.43;99623.03;5104535;28;20020;-62
2024/01/04 09:36:35;;;;;;;0.70;0.70;;;;;;;-6.36;64.58;99626.78;5104493;28;20463;-62
2024/01/04 09:39:03;;;;;;;0.70;0.70;;;;;;;-6.48;64.51;99626.19;5103728;28;20043;-62
2024/01/04 09:41:32;;;;;;;0.70;0.70;;;;;;;-6.67;64.36;99629.50;5104248;28;20036;-63
2024/01/04 09:44:05;;;;;;;0.70;0.70;;;;;;;-7.00;64.54;99622.88;5104406;28;20487;-63
2024/01/04 09:46:40;;;;;;;0.73;0.73;;;;;;;-7.17;64.40;99632.97;5104508;28;20024;-62
2024/01/04 09:49:08;;;;;;;1.67;1.02;;;;;;;-7.30;64.87;99626.44;5103900;28;20040;-63
2024/01/04 09:51:38;;;;;;;1.80;1.20;;;;;;;-7.27;65.42;99631.66;5102600;28;20035;-62
2024/01/04 09:54:08;;;;;;;0.98;0.93;;;;;;;-7.13;65.32;99636.53;5102877;28;20471;-62
2024/01/04 09:56:39;;;;;;;0.93;0.93;;;;;;;-6.94;65.29;99639.97;5103334;28;20024;-63
2024/01/04 09:59:04;;;;;;;0.77;0.77;;;;;;;-6.54;64.43;99628.44;5103244;28;20020;-64
2024/01/04 10:01:35;;;;;;;0.80;0.80;;;;;;;-6.18;64.58;99635.16;5102141;28;20111;-63
2024/01/04 10:04:11;;;;;;;1.00;1.00;;;;;;;-5.62;63.37;99637.63;5104222;28;20024;-63
2024/01/04 10:06:38;;;;;;;0.60;0.60;;;;;;;-5.20;63.07;99636.94;5103918;28;20049;-62
2024/01/04 10:09:25;;;;;;;2.70;1.33;;;;;;;-4.93;61.20;99641.44;5103834;28;20075;-62
2024/01/04 10:12:11;;;;;;;0.70;0.70;;;;;;;-5.10;60.78;99633.97;5102756;28;20028;-63
2024/01/04 10:14:37;;;;;;;1.95;1.63;;;;;;;-5.25;61.30;99654.44;5102463;28;20027;-62
2024/01/04 10:17:03;;;;;;;0.57;0.57;;;;;;;-5.18;61.97;99655.59;5103878;28;20122;-62
2024/01/04 10:19:31;;;;;;;0.80;0.80;;;;;;;-5.13;61.40;99643.13;5102481;28;20028;-62
2024/01/04 10:22:04;;;;;;;0.70;0.70;;;;;;;-5.36;60.60;99653.97;5103845;28;20043;-62
2024/01/04 10:24:38;;;;;;;0.68;0.68;;;;;;;-5.53;61.05;99659.97;5103785;28;20073;-63
2024/01/04 10:27:07;;;;;;;0.60;0.60;;;;;;;-5.84;61.24;99651.84;5103519;28;20119;-63
2024/01/04 10:29:35;;;;;;;1.00;1.00;;;;;;;-6.03;61.88;99662.75;5104014;28;20050;-62
2024/01/04 10:32:02;;;;;;;1.58;1.45;;;;;;;-6.18;61.94;99657.91;5105540;28;20024;-63
2024/01/04 10:34:28;;;;;;;0.63;0.63;;;;;;;-6.50;62.08;99674.09;5107290;28;20020;-62
2024/01/04 10:37:05;;;;;;;0.70;0.70;;;;;;;-6.61;62.34;99681.16;5107529;28;20023;-62
2024/01/04 10:39:31;;;;;;;0.60;0.60;;;;;;;-6.53;63.10;99678.16;5107254;28;20048;-62
2024/01/04 10:41:59;;;;;;;0.70;0.70;;;;;;;-6.41;62.63;99690.50;5107471;28;20281;-63
2024/01/04 10:44:25;;;;;;;0.75;0.75;;;;;;;-6.57;62.67;99677.13;5105965;28;20047;-63
2024/01/04 10:47:00;;;;;;;0.70;0.70;;;;;;;-6.60;62.74;99682.88;5106991;28;20024;-63
2024/01/04 10:49:25;;;;;;;0.70;0.70;;;;;;;-6.74;62.79;99684.72;5104850;28;20016;-63
2024/01/04 10:51:53;;;;;;;0.80;0.80;;;;;;;-6.72;63.09;99694.91;5106398;28;20545;-62
2024/01/04 10:54:19;;;;;;;0.80;0.80;;;;;;;-6.83;62.91;99694.38;5104989;28;20047;-62
2024/01/04 10:56:45;;;;;;;0.70;0.70;;;;;;;-6.94;63.07;99700.53;5106292;28;20098;-64
2024/01/04 10:59:12;;;;;;;0.77;0.77;;;;;;;-7.04;63.51;99700.06;5107082;28;20020;-64
2024/01/04 11:01:41;;;;;;;0.70;0.70;;;;;;;-6.99;63.45;99702.81;5106635;28;20024;-63
2024/01/04 11:04:07;;;;;;;0.70;0.70;;;;;;;-7.02;63.89;99703.53;5107079;28;20023;-62
2024/01/04 11:06:39;;;;;;;0.70;0.70;;;;;;;-6.85;64.02;99701.00;5106453;28;20053;-63
2024/01/04 11:09:05;;;;;;;1.27;1.17;;;;;;;-6.76;64.03;99696.44;5104506;28;20024;-63
2024/01/04 11:11:33;;;;;;;0.85;0.85;;;;;;;-6.49;63.48;99703.63;5104551;28;20445;-63
2024/01/04 11:13:59;;;;;;;0.70;0.70;;;;;;;-6.24;63.03;99719.97;5106724;28;20085;-62
2024/01/04 11:17:09;;;;;;;0.60;0.60;;;;;;;-5.89;62.20;99701.31;5106325;28;20020;-63
2024/01/04 11:19:49;;;;;;;0.70;0.70;;;;;;;-5.07;61.02;99698.19;5063399;28;20612;-62
2024/01/04 11:22:30;;;;;;;0.70;0.70;;;;;;;-4.37;59.42;99716.31;5063879;28;20052;-62
2024/01/04 11:25:24;;;;;;;0.70;0.70;;;;;;;-3.90;57.52;99703.78;5063130;28;20469;-62
2024/01/04 11:27:50;;;;;;;0.70;0.70;;;;;;;-3.65;56.32;99706.41;5062681;28;20041;-62
2024/01/04 11:30:16;;;;;;;0.68;0.68;;;;;;;-3.51;56.32;99705.25;5063134;28;20032;-62